Time;durP1;ratioP1;P1;durP2;ratioP2;P2;SDS_P1;SDS_P2;PMS_P1;PMS_P2;Temp;Humidity;BMP_temperature;BMP_pressure;BME280_temperature;BME280_humidity;BME280_pressure;Samples;Min_cycle;Max_cycle;Signal;HPM_P1;HPM_P2
2024/01/21 00:01:50;;;;;;;9.95;8.95;;;7.80;70.80;;;;;;5011040;28;20033;-70
2024/01/21 00:04:16;;;;;;;9.30;7.60;;;7.80;70.80;;;;;;4981580;28;20042;-70
2024/01/21 00:06:41;;;;;;;8.52;7.60;;;7.70;70.80;;;;;;4990542;28;20411;-71
2024/01/21 00:09:07;;;;;;;9.93;8.00;;;7.70;70.80;;;;;;5014106;28;20041;-70
2024/01/21 00:11:34;;;;;;;9.20;7.65;;;7.70;70.90;;;;;;5024430;28;20654;-70
2024/01/21 00:14:00;;;;;;;10.25;7.93;;;7.70;70.80;;;;;;5023939;28;20567;-70
2024/01/21 00:16:26;;;;;;;9.35;7.28;;;7.70;70.90;;;;;;5030179;28;20559;-71
2024/01/21 00:18:52;;;;;;;8.43;7.57;;;7.70;70.80;;;;;;4997567;28;20236;-70
2024/01/21 00:21:18;;;;;;;11.05;9.13;;;7.70;70.90;;;;;;4998452;28;20392;-70
2024/01/21 00:23:46;;;;;;;9.20;8.20;;;7.70;70.70;;;;;;5024772;28;20120;-70
2024/01/21 00:26:12;;;;;;;10.63;8.25;;;7.70;70.70;;;;;;4990774;28;20077;-70
2024/01/21 00:28:37;;;;;;;10.98;7.03;;;7.70;70.70;;;;;;4999795;28;20084;-71
2024/01/21 00:31:06;;;;;;;9.18;6.75;;;7.70;70.60;;;;;;4995696;28;20663;-70
2024/01/21 00:33:31;;;;;;;9.93;7.82;;;7.70;70.70;;;;;;4997441;28;20412;-70
2024/01/21 00:35:57;;;;;;;8.48;7.03;;;7.70;70.60;;;;;;5013335;28;20067;-70
2024/01/21 00:38:23;;;;;;;8.93;7.85;;;7.70;70.60;;;;;;4992757;28;20132;-70
2024/01/21 00:40:49;;;;;;;8.60;7.32;;;7.70;70.60;;;;;;4996893;28;20048;-70
2024/01/21 00:43:15;;;;;;;9.30;7.65;;;7.70;70.60;;;;;;5012029;28;20052;-70
2024/01/21 00:45:41;;;;;;;9.18;7.30;;;7.70;70.60;;;;;;4995043;28;20038;-70
2024/01/21 00:48:06;;;;;;;9.43;7.93;;;7.70;70.60;;;;;;4994497;28;20041;-70
2024/01/21 00:50:32;;;;;;;8.85;7.90;;;7.70;70.60;;;;;;5014924;28;20132;-70
2024/01/21 00:52:58;;;;;;;9.23;8.07;;;7.70;70.60;;;;;;4993680;28;20037;-70
2024/01/21 00:55:23;;;;;;;10.13;7.05;;;7.70;70.60;;;;;;4991822;28;20284;-70
2024/01/21 00:57:49;;;;;;;8.38;6.75;;;7.70;70.60;;;;;;5047042;28;20116;-70
2024/01/21 01:00:15;;;;;;;7.65;6.85;;;7.70;70.60;;;;;;5010305;28;20099;-70
2024/01/21 01:02:40;;;;;;;9.30;7.55;;;7.70;70.60;;;;;;4971521;28;20059;-70
2024/01/21 01:05:07;;;;;;;8.68;7.78;;;7.70;70.60;;;;;;5010959;28;20037;-70
2024/01/21 01:07:32;;;;;;;9.02;6.15;;;7.70;70.50;;;;;;5029227;28;20095;-70
2024/01/21 01:09:58;;;;;;;7.20;6.10;;;7.70;70.60;;;;;;5009705;28;20059;-70
2024/01/21 01:12:24;;;;;;;9.10;6.28;;;7.70;70.60;;;;;;4993253;28;20072;-70
2024/01/21 01:14:49;;;;;;;8.02;6.10;;;7.70;70.60;;;;;;4993337;28;20260;-70
2024/01/21 01:17:15;;;;;;;8.00;6.55;;;7.70;70.60;;;;;;5027369;28;20512;-70
2024/01/21 01:19:41;;;;;;;7.32;6.63;;;7.70;70.50;;;;;;5010707;28;20038;-70
2024/01/21 01:22:07;;;;;;;8.95;5.80;;;7.70;70.40;;;;;;5011874;28;20037;-70
2024/01/21 01:24:32;;;;;;;8.27;6.68;;;7.70;70.50;;;;;;4993190;28;20053;-70
2024/01/21 01:26:58;;;;;;;7.63;6.70;;;7.70;70.30;;;;;;5027213;28;20047;-70
2024/01/21 01:29:23;;;;;;;8.20;7.22;;;7.70;70.40;;;;;;5009451;28;20038;-70
2024/01/21 01:31:49;;;;;;;6.10;5.50;;;7.70;70.20;;;;;;5018354;28;20509;-70
2024/01/21 01:34:15;;;;;;;6.55;4.85;;;7.70;70.30;;;;;;4980244;28;20041;-71
2024/01/21 01:36:40;;;;;;;6.47;5.47;;;7.70;70.30;;;;;;5026641;28;20390;-70
2024/01/21 01:39:09;;;;;;;5.63;5.05;;;7.70;70.20;;;;;;4996965;28;20037;-70
2024/01/21 01:41:34;;;;;;;6.18;5.32;;;7.70;70.30;;;;;;5010597;28;20135;-70
2024/01/21 01:44:00;;;;;;;10.70;6.00;;;7.70;70.10;;;;;;5011706;28;20068;-70
2024/01/21 01:46:26;;;;;;;7.97;5.70;;;7.70;70.20;;;;;;5004792;28;20117;-70
2024/01/21 01:48:51;;;;;;;6.78;4.95;;;7.70;70.10;;;;;;5012058;28;20493;-70
2024/01/21 01:51:17;;;;;;;9.10;4.45;;;7.70;70.10;;;;;;4991829;28;20042;-70
2024/01/21 01:53:42;;;;;;;5.90;4.88;;;7.70;70.10;;;;;;5000094;28;20037;-70
2024/01/21 01:56:08;;;;;;;5.45;4.88;;;7.70;70.00;;;;;;4993792;28;20124;-70
2024/01/21 01:58:34;;;;;;;5.05;4.00;;;7.70;70.00;;;;;;4995527;28;20071;-70
2024/01/21 02:01:00;;;;;;;7.10;4.47;;;7.70;70.00;;;;;;4976161;28;20067;-70
2024/01/21 02:03:25;;;;;;;7.85;4.55;;;7.70;70.00;;;;;;5011517;28;20116;-70
2024/01/21 02:05:51;;;;;;;5.32;4.18;;;7.70;69.90;;;;;;5012097;28;20043;-70
2024/01/21 02:08:17;;;;;;;4.53;3.97;;;7.70;69.90;;;;;;5010327;28;20060;-70
2024/01/21 02:10:42;;;;;;;5.30;3.75;;;7.70;69.90;;;;;;5025247;28;20068;-70
2024/01/21 02:13:08;;;;;;;5.72;4.47;;;7.70;69.90;;;;;;5018181;28;20041;-70
2024/01/21 02:15:33;;;;;;;4.78;3.75;;;7.70;69.70;;;;;;5025347;28;20099;-70
2024/01/21 02:17:59;;;;;;;4.80;3.88;;;7.70;69.70;;;;;;4976508;28;20081;-70
2024/01/21 02:20:25;;;;;;;6.07;3.70;;;7.70;69.60;;;;;;5011241;28;20528;-70
2024/01/21 02:22:50;;;;;;;4.72;3.63;;;7.70;69.60;;;;;;4990679;28;20124;-70
2024/01/21 02:25:16;;;;;;;3.65;3.35;;;7.70;69.60;;;;;;4995306;28;20034;-70
2024/01/21 02:27:42;;;;;;;3.38;3.05;;;7.70;69.60;;;;;;5011907;28;20080;-70
2024/01/21 02:30:08;;;;;;;4.22;3.78;;;7.70;69.60;;;;;;4993390;28;20072;-70
2024/01/21 02:32:33;;;;;;;4.35;3.25;;;7.60;69.50;;;;;;4988504;28;20447;-70
2024/01/21 02:34:59;;;;;;;5.10;3.28;;;7.60;69.50;;;;;;5011322;28;20048;-70
2024/01/21 02:37:25;;;;;;;3.72;3.42;;;7.70;69.60;;;;;;4993473;28;20033;-70
2024/01/21 02:39:50;;;;;;;4.00;3.38;;;7.70;69.50;;;;;;4993254;28;20072;-70
2024/01/21 02:42:16;;;;;;;3.58;2.97;;;7.70;69.50;;;;;;5007852;28;20046;-70
2024/01/21 02:44:41;;;;;;;4.47;3.30;;;7.60;69.30;;;;;;5014837;28;20124;-70
2024/01/21 02:47:07;;;;;;;3.75;2.88;;;7.70;69.40;;;;;;4981855;28;20159;-70
2024/01/21 02:49:33;;;;;;;3.92;3.03;;;7.60;69.30;;;;;;5008903;28;20041;-70
2024/01/21 02:51:58;;;;;;;3.13;2.80;;;7.60;69.20;;;;;;5013293;28;20393;-70
2024/01/21 02:54:24;;;;;;;4.13;2.90;;;7.60;69.20;;;;;;4983220;28;20120;-70
2024/01/21 02:56:50;;;;;;;2.80;2.42;;;7.60;69.10;;;;;;4998131;28;20048;-70
2024/01/21 02:59:16;;;;;;;3.67;2.72;;;7.60;69.00;;;;;;5011255;28;20045;-70
2024/01/21 03:01:41;;;;;;;3.20;2.13;;;7.70;69.00;;;;;;5017812;28;20048;-70
2024/01/21 03:04:13;;;;;;;3.67;2.92;;;7.60;69.00;;;;;;5013591;28;20036;-70
2024/01/21 03:06:39;;;;;;;2.90;2.47;;;7.60;68.90;;;;;;4997703;28;20045;-70
2024/01/21 03:09:05;;;;;;;3.22;2.60;;;7.60;68.70;;;;;;4996548;28;20462;-70
2024/01/21 03:11:31;;;;;;;4.18;2.70;;;7.60;68.70;;;;;;5014201;28;20076;-70
2024/01/21 03:13:57;;;;;;;2.67;2.42;;;7.60;68.70;;;;;;4982787;28;20041;-70
2024/01/21 03:16:23;;;;;;;2.70;2.47;;;7.60;68.70;;;;;;5013351;28;20532;-70
2024/01/21 03:18:48;;;;;;;2.90;1.80;;;7.60;68.70;;;;;;5010462;28;20053;-70
2024/01/21 03:21:14;;;;;;;2.80;1.90;;;7.60;68.50;;;;;;4998394;28;20040;-70
2024/01/21 03:23:40;;;;;;;2.80;1.85;;;7.60;68.50;;;;;;4982585;28;20045;-70
2024/01/21 03:26:05;;;;;;;1.92;1.83;;;7.60;68.40;;;;;;5023807;28;20222;-70
2024/01/21 03:28:31;;;;;;;2.38;2.17;;;7.60;68.40;;;;;;5012557;28;20113;-70
2024/01/21 03:30:57;;;;;;;2.08;1.88;;;7.60;68.30;;;;;;5018598;28;20035;-70
2024/01/21 03:33:23;;;;;;;2.28;1.98;;;7.60;68.20;;;;;;5024799;28;20177;-69
2024/01/21 03:35:49;;;;;;;2.33;2.13;;;7.60;68.30;;;;;;5011689;28;20041;-70
2024/01/21 03:38:14;;;;;;;2.22;2.00;;;7.60;68.30;;;;;;5031066;28;20382;-70
2024/01/21 03:40:40;;;;;;;3.70;1.98;;;7.60;68.10;;;;;;4989864;28;20651;-70
2024/01/21 03:43:06;;;;;;;2.95;2.13;;;7.60;68.10;;;;;;5010588;28;20052;-70
2024/01/21 03:45:31;;;;;;;3.53;1.90;;;7.60;68.00;;;;;;4991360;28;20095;-70
2024/01/21 03:47:57;;;;;;;2.47;2.08;;;7.60;67.90;;;;;;5014433;28;20061;-70
2024/01/21 03:50:22;;;;;;;2.78;2.03;;;7.60;68.00;;;;;;5024143;28;20033;-70
2024/01/21 03:52:49;;;;;;;2.42;2.10;;;7.60;67.90;;;;;;5013600;28;20445;-70
2024/01/21 03:55:15;;;;;;;2.33;1.90;;;7.60;67.80;;;;;;5012826;28;20056;-70
2024/01/21 03:57:41;;;;;;;2.28;1.85;;;7.60;67.80;;;;;;5031094;28;20045;-70
2024/01/21 04:00:09;;;;;;;2.90;2.33;;;7.60;67.80;;;;;;5029163;28;20043;-70
2024/01/21 04:02:35;;;;;;;1.90;1.75;;;7.60;67.70;;;;;;4998343;28;20041;-70
2024/01/21 04:05:01;;;;;;;1.80;1.70;;;7.60;67.60;;;;;;5012471;28;20045;-70
2024/01/21 04:07:26;;;;;;;2.17;1.98;;;7.60;67.50;;;;;;4991235;28;20382;-70
2024/01/21 04:09:52;;;;;;;1.85;1.30;;;7.50;67.40;;;;;;5011164;28;20049;-70
2024/01/21 04:12:17;;;;;;;1.90;1.58;;;7.60;67.50;;;;;;4994393;28;20041;-70
2024/01/21 04:14:43;;;;;;;2.92;1.80;;;7.60;67.50;;;;;;5005852;28;20045;-70
2024/01/21 04:17:09;;;;;;;1.95;1.75;;;7.60;67.40;;;;;;4998963;28;20104;-69
2024/01/21 04:19:35;;;;;;;1.58;1.48;;;7.50;67.30;;;;;;4981928;28;20037;-70
2024/01/21 04:22:01;;;;;;;3.22;1.45;;;7.60;67.40;;;;;;5007748;28;20050;-70
2024/01/21 04:24:26;;;;;;;1.75;1.52;;;7.60;67.40;;;;;;4997350;28;20450;-70
2024/01/21 04:26:52;;;;;;;1.70;1.60;;;7.60;67.20;;;;;;5014462;28;20455;-69
2024/01/21 04:29:17;;;;;;;1.75;1.65;;;7.60;67.30;;;;;;5013683;28;20057;-70
2024/01/21 04:31:46;;;;;;;1.73;1.63;;;7.50;67.10;;;;;;4993093;28;20493;-70
2024/01/21 04:34:11;;;;;;;3.03;1.85;;;7.60;67.00;;;;;;4990490;28;20509;-69
2024/01/21 04:36:37;;;;;;;1.83;1.40;;;7.50;66.90;;;;;;4995203;28;20065;-70
2024/01/21 04:39:03;;;;;;;3.20;1.60;;;7.50;67.00;;;;;;5013979;28;20041;-70
2024/01/21 04:41:28;;;;;;;3.13;1.63;;;7.60;66.90;;;;;;5028354;28;20084;-70
2024/01/21 04:43:55;;;;;;;2.80;1.60;;;7.50;66.90;;;;;;5016032;28;20086;-70
2024/01/21 04:46:21;;;;;;;2.22;2.05;;;7.50;66.90;;;;;;5009358;28;20038;-70
2024/01/21 04:48:47;;;;;;;1.80;1.70;;;7.60;66.60;;;;;;5014570;28;20048;-69
2024/01/21 04:51:13;;;;;;;2.88;1.90;;;7.50;66.60;;;;;;4997394;28;20068;-70
2024/01/21 04:53:39;;;;;;;1.80;1.50;;;7.50;66.50;;;;;;5013747;28;20037;-69
2024/01/21 04:56:05;;;;;;;2.13;1.92;;;7.50;66.50;;;;;;4993980;28;20037;-70
2024/01/21 04:58:31;;;;;;;3.50;1.33;;;7.50;66.50;;;;;;5008766;28;20579;-70
2024/01/21 05:00:57;;;;;;;2.15;1.70;;;7.50;66.50;;;;;;5005843;28;20041;-70
2024/01/21 05:03:22;;;;;;;1.45;1.30;;;7.50;66.50;;;;;;4977405;28;20049;-70
2024/01/21 05:05:49;;;;;;;1.42;1.33;;;7.60;66.60;;;;;;5008607;28;20132;-69
2024/01/21 05:08:14;;;;;;;2.30;1.85;;;7.50;66.50;;;;;;5010956;28;20046;-69
2024/01/21 05:10:40;;;;;;;1.70;1.40;;;7.50;66.40;;;;;;5017217;28;20038;-70
2024/01/21 05:13:05;;;;;;;1.67;1.58;;;7.50;66.50;;;;;;5012068;28;20034;-69
2024/01/21 05:15:31;;;;;;;1.60;1.30;;;7.50;66.40;;;;;;5006518;28;20061;-70
2024/01/21 05:17:57;;;;;;;1.88;1.60;;;7.50;66.40;;;;;;5023311;28;20044;-70
2024/01/21 05:20:23;;;;;;;2.28;1.60;;;7.50;66.40;;;;;;5011319;28;20589;-69
2024/01/21 05:22:50;;;;;;;1.55;1.45;;;7.50;66.40;;;;;;5011239;28;20114;-69
2024/01/21 05:25:16;;;;;;;2.08;1.88;;;7.50;66.30;;;;;;4992813;28;20034;-69
2024/01/21 05:27:42;;;;;;;2.55;1.80;;;7.50;66.20;;;;;;5024857;28;20051;-69
2024/01/21 05:30:08;;;;;;;5.28;2.05;;;7.50;66.20;;;;;;5028545;28;20041;-69
2024/01/21 05:32:33;;;;;;;2.88;1.60;;;7.50;66.10;;;;;;5020975;28;20121;-69
2024/01/21 05:34:59;;;;;;;2.70;1.77;;;7.50;66.10;;;;;;5010716;28;20041;-69
2024/01/21 05:37:25;;;;;;;2.50;2.30;;;7.50;66.10;;;;;;5011498;28;20033;-69
2024/01/21 05:39:50;;;;;;;2.25;2.05;;;7.40;66.00;;;;;;4997696;28;20057;-69
2024/01/21 05:42:16;;;;;;;1.88;1.77;;;7.50;65.90;;;;;;5029118;28;20489;-69
2024/01/21 05:44:41;;;;;;;2.92;2.28;;;7.40;66.00;;;;;;5014274;28;20029;-70
2024/01/21 05:47:07;;;;;;;1.50;1.40;;;7.50;65.90;;;;;;5025901;28;20073;-70
2024/01/21 05:49:33;;;;;;;3.08;2.22;;;7.50;65.90;;;;;;5023693;28;20045;-70
2024/01/21 05:51:59;;;;;;;3.13;2.20;;;7.40;65.30;;;;;;5015459;28;20037;-69
2024/01/21 05:54:27;;;;;;;3.10;2.00;;;7.50;65.30;;;;;;5013331;28;20041;-69
2024/01/21 05:56:53;;;;;;;2.70;2.17;;;7.40;65.20;;;;;;5041617;28;20060;-69
2024/01/21 05:59:20;;;;;;;2.42;2.20;;;7.40;65.20;;;;;;4999397;28;20042;-69
2024/01/21 06:01:49;;;;;;;3.67;2.05;;;7.40;65.20;;;;;;4994553;28;20095;-70
2024/01/21 06:04:17;;;;;;;2.40;2.03;;;7.40;65.30;;;;;;5010600;28;20537;-70
2024/01/21 06:06:43;;;;;;;2.80;2.30;;;7.40;65.40;;;;;;4995399;28;20049;-70
2024/01/21 06:09:09;;;;;;;2.63;2.10;;;7.40;65.40;;;;;;5012342;28;20056;-70
2024/01/21 06:11:34;;;;;;;2.42;2.22;;;7.40;65.40;;;;;;5011700;28;20038;-70
2024/01/21 06:14:00;;;;;;;3.90;2.15;;;7.40;66.20;;;;;;5028094;28;20060;-70
2024/01/21 06:16:26;;;;;;;2.00;1.80;;;7.40;65.50;;;;;;5012922;28;20053;-70
2024/01/21 06:18:51;;;;;;;3.40;3.10;;;7.40;65.50;;;;;;5031112;28;20065;-70
2024/01/21 06:21:17;;;;;;;3.13;2.85;;;7.40;65.50;;;;;;4999734;28;20404;-70
2024/01/21 06:23:44;;;;;;;2.47;2.28;;;7.40;65.40;;;;;;5000048;28;20539;-70
2024/01/21 06:26:19;;;;;;;4.15;2.50;;;7.40;65.50;;;;;;5001620;28;20045;-70
2024/01/21 06:28:49;;;;;;;3.28;2.65;;;7.40;65.40;;;;;;5008002;28;20409;-70
2024/01/21 06:31:15;;;;;;;3.28;2.97;;;7.40;65.40;;;;;;4998524;28;20072;-70
2024/01/21 06:33:41;;;;;;;3.92;3.50;;;7.40;65.50;;;;;;5013599;28;20037;-70
2024/01/21 06:36:06;;;;;;;3.58;3.00;;;7.40;65.40;;;;;;4999976;28;20048;-70
2024/01/21 06:38:32;;;;;;;2.90;2.63;;;7.40;65.50;;;;;;5000016;28;20044;-70
2024/01/21 06:40:58;;;;;;;3.55;3.25;;;7.40;65.50;;;;;;5000302;28;20041;-70
2024/01/21 06:43:23;;;;;;;3.70;3.35;;;7.40;65.40;;;;;;4993551;28;20042;-70
2024/01/21 06:45:49;;;;;;;2.95;2.60;;;7.40;65.40;;;;;;4994246;28;20041;-70
2024/01/21 06:48:15;;;;;;;3.17;2.67;;;7.40;65.60;;;;;;5014833;28;20304;-70
2024/01/21 06:50:40;;;;;;;4.65;2.97;;;7.40;65.60;;;;;;5011503;28;20050;-70
2024/01/21 06:53:06;;;;;;;3.65;2.95;;;7.40;65.60;;;;;;4999766;28;20046;-70
2024/01/21 06:55:32;;;;;;;6.05;4.00;;;7.40;65.60;;;;;;4998534;28;20049;-70
2024/01/21 06:57:57;;;;;;;4.45;3.38;;;7.40;65.60;;;;;;4999745;28;20432;-70
2024/01/21 07:00:23;;;;;;;5.70;3.38;;;7.40;65.50;;;;;;4979940;28;20254;-70
2024/01/21 07:02:48;;;;;;;4.20;3.78;;;7.40;65.30;;;;;;5012507;28;20033;-70
2024/01/21 07:05:14;;;;;;;3.88;2.97;;;7.40;65.30;;;;;;5011957;28;20046;-70
2024/01/21 07:07:40;;;;;;;4.65;3.85;;;7.40;65.30;;;;;;5011147;28;20096;-70
2024/01/21 07:10:06;;;;;;;4.95;4.45;;;7.40;65.40;;;;;;5013978;28;20038;-70
2024/01/21 07:12:31;;;;;;;5.03;3.83;;;7.40;66.10;;;;;;4997365;28;20549;-70
2024/01/21 07:14:57;;;;;;;5.60;4.50;;;7.40;65.50;;;;;;4996956;28;20034;-69
2024/01/21 07:17:23;;;;;;;4.53;3.65;;;7.50;65.50;;;;;;4997143;28;20048;-69
2024/01/21 07:19:52;;;;;;;4.25;3.75;;;7.50;65.60;;;;;;5010800;28;20386;-70
2024/01/21 07:22:19;;;;;;;6.25;3.65;;;7.50;65.70;;;;;;4997822;28;20111;-70
2024/01/21 07:24:44;;;;;;;6.28;3.60;;;7.60;65.70;;;;;;4994297;28;20087;-70
2024/01/21 07:27:10;;;;;;;4.85;4.10;;;7.60;65.80;;;;;;4973893;28;20069;-70
2024/01/21 07:29:36;;;;;;;5.80;4.55;;;7.60;65.10;;;;;;5041267;28;20048;-70
2024/01/21 07:32:01;;;;;;;5.47;4.97;;;7.50;65.10;;;;;;4999693;28;20048;-70
2024/01/21 07:34:28;;;;;;;5.82;4.75;;;7.50;65.10;;;;;;5012939;28;20096;-70
2024/01/21 07:36:53;;;;;;;4.70;3.95;;;7.50;65.10;;;;;;5029466;28;20120;-70
2024/01/21 07:39:19;;;;;;;5.40;4.60;;;7.50;65.30;;;;;;4999716;28;20137;-70
2024/01/21 07:41:45;;;;;;;6.60;4.57;;;7.50;65.30;;;;;;5026189;28;20131;-70
2024/01/21 07:44:10;;;;;;;4.68;4.18;;;7.60;65.60;;;;;;5011976;28;20469;-70
2024/01/21 07:46:36;;;;;;;5.30;4.55;;;7.50;65.60;;;;;;5010801;28;20095;-70
2024/01/21 07:49:02;;;;;;;7.10;4.85;;;7.50;65.60;;;;;;5015195;28;20075;-70
2024/01/21 07:51:27;;;;;;;6.22;5.00;;;7.60;65.70;;;;;;4983196;28;20042;-70
2024/01/21 07:53:53;;;;;;;4.70;3.95;;;7.60;65.80;;;;;;5012765;28;20058;-70
2024/01/21 07:56:19;;;;;;;4.78;4.20;;;7.60;65.90;;;;;;4994163;28;20418;-70
2024/01/21 07:58:44;;;;;;;5.65;4.30;;;7.60;66.30;;;;;;4997207;28;20439;-70
2024/01/21 08:01:11;;;;;;;6.20;4.40;;;7.60;65.90;;;;;;5015251;28;20758;-70
2024/01/21 08:03:37;;;;;;;5.03;4.05;;;7.60;66.00;;;;;;4983415;28;20075;-70
2024/01/21 08:06:04;;;;;;;5.28;4.50;;;7.60;66.80;;;;;;5031839;28;20116;-69
2024/01/21 08:08:30;;;;;;;5.22;4.10;;;7.60;66.00;;;;;;4999516;28;20512;-70
2024/01/21 08:10:56;;;;;;;6.18;5.35;;;7.60;66.10;;;;;;4999084;28;20068;-70
2024/01/21 08:13:21;;;;;;;5.80;5.18;;;7.60;66.00;;;;;;4996729;28;20076;-69
2024/01/21 08:15:47;;;;;;;6.18;4.18;;;7.60;66.00;;;;;;5025667;28;20053;-69
2024/01/21 08:18:14;;;;;;;5.32;4.20;;;7.60;66.10;;;;;;5012102;28;20498;-69
2024/01/21 08:20:39;;;;;;;5.10;4.60;;;7.60;66.30;;;;;;5023191;28;20509;-69
2024/01/21 08:23:05;;;;;;;4.05;3.30;;;7.60;66.20;;;;;;5015733;28;20072;-69
2024/01/21 08:25:31;;;;;;;5.03;4.32;;;7.60;66.30;;;;;;4999117;28;20406;-69
2024/01/21 08:27:56;;;;;;;6.10;5.22;;;7.60;66.30;;;;;;5014247;28;20048;-69
2024/01/21 08:30:22;;;;;;;4.53;3.75;;;7.60;66.30;;;;;;4993863;28;20034;-69
2024/01/21 08:32:47;;;;;;;5.07;4.40;;;7.60;66.40;;;;;;5009362;28;20439;-69
2024/01/21 08:35:13;;;;;;;5.18;4.47;;;7.60;66.50;;;;;;4998533;28;20047;-69
2024/01/21 08:37:39;;;;;;;4.68;3.78;;;7.60;66.50;;;;;;4997383;28;20030;-69
2024/01/21 08:40:06;;;;;;;4.72;4.22;;;7.60;66.50;;;;;;4997489;28;20489;-69
2024/01/21 08:42:32;;;;;;;4.82;3.97;;;7.60;66.60;;;;;;5029172;28;20103;-69
2024/01/21 08:44:58;;;;;;;4.63;4.15;;;7.60;66.70;;;;;;5011352;28;20449;-69
2024/01/21 08:47:23;;;;;;;5.95;4.55;;;7.70;67.50;;;;;;4996436;28;20060;-69
2024/01/21 08:49:49;;;;;;;4.90;4.07;;;7.60;66.70;;;;;;5014638;28;20042;-69
2024/01/21 08:52:15;;;;;;;4.90;3.92;;;7.70;66.80;;;;;;5014871;28;20500;-69
2024/01/21 08:54:40;;;;;;;5.35;4.85;;;7.60;67.60;;;;;;5030178;28;20564;-69
2024/01/21 08:57:06;;;;;;;4.70;4.30;;;7.70;67.00;;;;;;5030490;28;20529;-69
2024/01/21 08:59:32;;;;;;;5.30;4.57;;;7.70;67.00;;;;;;5030790;28;20045;-69
2024/01/21 09:01:58;;;;;;;4.72;4.22;;;7.70;67.00;;;;;;5014538;28;20120;-69
2024/01/21 09:04:24;;;;;;;4.35;3.80;;;7.70;67.00;;;;;;5012493;28;20359;-69
2024/01/21 09:06:49;;;;;;;5.05;4.10;;;7.70;67.80;;;;;;5014329;28;20051;-69
2024/01/21 09:09:15;;;;;;;5.60;4.45;;;7.70;67.10;;;;;;4998191;28;20046;-69
2024/01/21 09:11:40;;;;;;;4.53;3.60;;;7.70;67.10;;;;;;4996740;28;20489;-69
2024/01/21 09:14:06;;;;;;;5.57;4.85;;;7.70;67.10;;;;;;5013372;28;20060;-69
2024/01/21 09:16:35;;;;;;;5.60;4.50;;;7.70;67.10;;;;;;5014215;28;20058;-70
2024/01/21 09:19:01;;;;;;;4.53;4.13;;;7.70;67.10;;;;;;4997814;28;20096;-70
2024/01/21 09:21:27;;;;;;;4.45;3.83;;;7.70;67.20;;;;;;5010572;28;20192;-69
2024/01/21 09:23:55;;;;;;;5.97;3.95;;;7.70;67.20;;;;;;4997607;28;20045;-70
2024/01/21 09:26:21;;;;;;;4.60;3.95;;;7.70;67.30;;;;;;4997506;28;20041;-69
2024/01/21 09:28:46;;;;;;;5.00;4.47;;;7.70;67.30;;;;;;5001155;28;20045;-70
2024/01/21 09:31:12;;;;;;;4.75;3.85;;;7.70;67.40;;;;;;4997859;28;20048;-70
2024/01/21 09:33:37;;;;;;;5.57;4.50;;;7.70;67.50;;;;;;4997292;28;20481;-70
2024/01/21 09:36:04;;;;;;;5.95;3.70;;;7.80;67.50;;;;;;5012974;28;20064;-70
2024/01/21 09:38:29;;;;;;;3.95;3.45;;;7.80;67.60;;;;;;4996048;28;20392;-70
2024/01/21 09:41:16;;;;;;;4.22;3.88;;;7.80;67.60;;;;;;5013266;28;20045;-70
2024/01/21 09:43:44;;;;;;;6.07;4.50;;;7.80;67.60;;;;;;5012245;28;20077;-70
2024/01/21 09:46:14;;;;;;;4.60;3.85;;;7.80;67.70;;;;;;5004699;28;20041;-70
2024/01/21 09:48:39;;;;;;;5.10;4.60;;;7.80;67.70;;;;;;4997647;28;20038;-70
2024/01/21 09:51:05;;;;;;;4.32;3.65;;;7.80;67.80;;;;;;5009953;28;20049;-70
2024/01/21 09:53:32;;;;;;;5.25;4.20;;;7.80;67.80;;;;;;4995083;28;20049;-69
2024/01/21 09:56:03;;;;;;;3.97;3.58;;;7.80;67.80;;;;;;5013394;28;20505;-70
2024/01/21 09:58:29;;;;;;;4.45;4.05;;;7.80;67.90;;;;;;4981605;28;20053;-69
2024/01/21 10:00:54;;;;;;;4.47;4.03;;;7.80;67.90;;;;;;4997440;28;20048;-69
2024/01/21 10:03:20;;;;;;;4.95;4.45;;;7.80;67.90;;;;;;4996234;28;20515;-69
2024/01/21 10:05:46;;;;;;;5.07;4.53;;;7.80;68.00;;;;;;5058972;28;20194;-69
2024/01/21 10:08:12;;;;;;;4.53;4.13;;;7.80;68.00;;;;;;5029262;28;20056;-69
2024/01/21 10:10:41;;;;;;;5.93;4.18;;;7.80;68.00;;;;;;4995681;28;20061;-69
2024/01/21 10:13:07;;;;;;;3.80;3.50;;;7.90;68.20;;;;;;5013403;28;20182;-69
2024/01/21 10:15:33;;;;;;;5.28;3.97;;;7.90;68.20;;;;;;4981195;28;20529;-69
2024/01/21 10:17:59;;;;;;;4.15;3.75;;;7.90;68.30;;;;;;4991902;28;20049;-69
2024/01/21 10:20:25;;;;;;;4.15;3.35;;;7.90;68.40;;;;;;4996663;28;20413;-69
2024/01/21 10:22:50;;;;;;;5.57;4.60;;;7.90;68.40;;;;;;4996459;28;20378;-69
2024/01/21 10:25:16;;;;;;;4.68;4.18;;;7.90;68.40;;;;;;4996914;28;20045;-69
2024/01/21 10:27:45;;;;;;;6.20;4.18;;;7.90;68.50;;;;;;5006471;28;20072;-69
2024/01/21 10:30:12;;;;;;;4.80;4.18;;;7.90;68.50;;;;;;4993729;28;20046;-69
2024/01/21 10:32:38;;;;;;;4.65;4.25;;;7.90;68.50;;;;;;4988518;28;20071;-69
2024/01/21 10:35:06;;;;;;;4.53;3.60;;;7.90;68.60;;;;;;5010294;28;20073;-69
2024/01/21 10:37:32;;;;;;;4.28;3.53;;;7.90;68.70;;;;;;5002510;28;20038;-69
2024/01/21 10:39:58;;;;;;;4.10;3.28;;;7.90;68.70;;;;;;4996864;28;20509;-69
2024/01/21 10:42:23;;;;;;;5.07;4.00;;;7.90;68.80;;;;;;4994146;28;20033;-68
2024/01/21 10:44:49;;;;;;;3.85;3.53;;;7.90;68.80;;;;;;5012865;28;20053;-69
2024/01/21 10:47:15;;;;;;;4.53;3.53;;;7.90;68.90;;;;;;4996768;28;20586;-68
2024/01/21 10:49:41;;;;;;;4.22;3.50;;;8.00;68.90;;;;;;4996480;28;20045;-68
2024/01/21 10:52:09;;;;;;;4.22;3.80;;;7.90;69.00;;;;;;4979716;28;20104;-68
2024/01/21 10:54:34;;;;;;;4.55;3.47;;;8.00;69.10;;;;;;5007890;28;20046;-68
2024/01/21 10:57:01;;;;;;;3.95;3.47;;;8.00;69.20;;;;;;4996816;28;20042;-68
2024/01/21 10:59:29;;;;;;;5.28;4.35;;;7.90;69.10;;;;;;5011265;28;20037;-68
2024/01/21 11:01:54;;;;;;;5.07;3.90;;;8.00;69.20;;;;;;5009830;28;20441;-68
2024/01/21 11:04:21;;;;;;;3.85;3.50;;;8.00;69.30;;;;;;5007778;28;20049;-68
2024/01/21 11:06:48;;;;;;;5.45;3.50;;;8.00;69.30;;;;;;5000227;28;20100;-68
2024/01/21 11:09:21;;;;;;;3.93;3.53;;;8.00;69.40;;;;;;5015354;28;20085;-68
2024/01/21 11:11:48;;;;;;;4.90;4.40;;;8.00;69.40;;;;;;4994513;28;20284;-68
2024/01/21 11:14:40;;;;;;;4.10;3.67;;;8.00;69.50;;;;;;5022245;28;20280;-68
2024/01/21 11:17:10;;;;;;;4.97;3.75;;;8.00;69.70;;;;;;5012654;28;20371;-68
2024/01/21 11:19:55;;;;;;;5.40;3.88;;;8.00;69.60;;;;;;5016366;28;20048;-68
2024/01/21 11:22:25;;;;;;;4.13;3.67;;;8.00;69.80;;;;;;4999407;28;20041;-68
2024/01/21 11:24:54;;;;;;;4.18;3.78;;;8.00;69.70;;;;;;5016235;28;20051;-68
2024/01/21 11:27:20;;;;;;;4.03;3.63;;;8.00;69.80;;;;;;4998901;28;20413;-68
2024/01/21 11:29:49;;;;;;;5.50;3.88;;;8.00;69.80;;;;;;4998780;28;20045;-68
2024/01/21 11:32:37;;;;;;;5.15;3.90;;;8.10;69.90;;;;;;4993469;28;20038;-68
2024/01/21 11:35:09;;;;;;;4.15;3.75;;;8.00;69.90;;;;;;5000670;28;20041;-68
2024/01/21 11:37:36;;;;;;;3.28;2.97;;;8.00;70.70;;;;;;5014789;28;20033;-68
2024/01/21 11:40:03;;;;;;;5.10;4.60;;;8.00;70.10;;;;;;5016248;28;20045;-68
2024/01/21 11:42:32;;;;;;;3.83;3.50;;;8.10;70.30;;;;;;5032268;28;20120;-68
2024/01/21 11:45:03;;;;;;;4.18;3.78;;;8.10;70.30;;;;;;4999709;28;20107;-68
2024/01/21 11:47:28;;;;;;;4.47;4.07;;;8.10;70.30;;;;;;5012402;28;20030;-68
2024/01/21 11:49:54;;;;;;;4.25;3.85;;;8.10;70.50;;;;;;4998141;28;20459;-68
2024/01/21 11:52:20;;;;;;;4.30;3.90;;;8.10;71.20;;;;;;5029431;28;20057;-68
2024/01/21 11:54:47;;;;;;;3.95;3.28;;;8.10;70.50;;;;;;4998690;28;20037;-68
2024/01/21 11:57:13;;;;;;;4.22;3.83;;;8.10;70.50;;;;;;5014065;28;20054;-68
2024/01/21 11:59:39;;;;;;;4.32;4.03;;;8.10;70.60;;;;;;5004216;28;20049;-68
2024/01/21 12:02:07;;;;;;;3.78;3.38;;;8.10;70.70;;;;;;5029516;28;20041;-68
2024/01/21 12:04:32;;;;;;;4.53;4.03;;;8.10;70.80;;;;;;5015174;28;20045;-68
2024/01/21 12:06:58;;;;;;;4.38;3.92;;;8.10;70.80;;;;;;5013332;28;20048;-68
2024/01/21 12:09:23;;;;;;;5.82;4.05;;;8.10;70.90;;;;;;4998952;28;20428;-68
2024/01/21 12:11:50;;;;;;;4.18;3.50;;;8.20;71.00;;;;;;4998682;28;20059;-68
2024/01/21 12:14:16;;;;;;;5.32;3.63;;;8.10;71.20;;;;;;5014482;28;20048;-68
2024/01/21 12:16:42;;;;;;;4.78;3.63;;;8.20;71.20;;;;;;4998192;28;20057;-68
2024/01/21 12:19:07;;;;;;;4.38;3.60;;;8.10;71.20;;;;;;5004535;28;20052;-68
2024/01/21 12:21:33;;;;;;;5.40;3.95;;;8.20;71.40;;;;;;5027289;28;20068;-67
2024/01/21 12:23:59;;;;;;;4.20;3.80;;;8.10;71.40;;;;;;5029217;28;20053;-68
2024/01/21 12:26:25;;;;;;;4.15;3.72;;;8.20;71.50;;;;;;5015393;28;20123;-68
2024/01/21 12:29:03;;;;;;;4.25;3.85;;;8.20;71.60;;;;;;4998514;28;20085;-68
2024/01/21 12:31:31;;;;;;;4.65;3.60;;;8.20;71.70;;;;;;5013099;28;20042;-67
2024/01/21 12:34:01;;;;;;;4.18;3.50;;;8.20;71.60;;;;;;5014747;28;20064;-67
2024/01/21 12:36:29;;;;;;;5.25;4.28;;;8.20;71.60;;;;;;5010244;28;20044;-67
2024/01/21 12:38:54;;;;;;;4.45;3.72;;;8.20;71.70;;;;;;4998915;28;20412;-68
2024/01/21 12:41:21;;;;;;;4.60;4.20;;;8.20;71.70;;;;;;5029269;28;20050;-68
2024/01/21 12:43:49;;;;;;;5.15;3.95;;;8.20;71.80;;;;;;5012966;28;20064;-68
2024/01/21 12:46:16;;;;;;;4.75;3.85;;;8.20;71.90;;;;;;5010680;28;20045;-68
2024/01/21 12:48:41;;;;;;;5.38;4.05;;;8.20;71.90;;;;;;4996527;28;20469;-68
2024/01/21 12:51:07;;;;;;;5.68;4.18;;;8.20;72.00;;;;;;5013184;28;20120;-68
2024/01/21 12:53:32;;;;;;;3.92;3.55;;;8.20;72.00;;;;;;5012230;28;20048;-67